sensor_id;sensor_type;location;lat;lon;timestamp;P1;durP1;ratioP1;P2;durP2;ratioP2
9117;SDS011;4594;50.994;7.126;2023-06-22T00:02:17;4.33;;;3.50;;
9117;SDS011;4594;50.994;7.126;2023-06-22T00:04:43;4.93;;;3.30;;
9117;SDS011;4594;50.994;7.126;2023-06-22T00:07:09;4.10;;;3.33;;
9117;SDS011;4594;50.994;7.126;2023-06-22T00:09:35;3.33;;;3.13;;
9117;SDS011;4594;50.994;7.126;2023-06-22T00:12:01;3.77;;;3.47;;
9117;SDS011;4594;50.994;7.126;2023-06-22T00:14:28;3.03;;;2.93;;
9117;SDS011;4594;50.994;7.126;2023-06-22T00:16:53;3.47;;;3.17;;
9117;SDS011;4594;50.994;7.126;2023-06-22T00:19:24;3.60;;;3.20;;
9117;SDS011;4594;50.994;7.126;2023-06-22T00:21:50;3.13;;;2.90;;
9117;SDS011;4594;50.994;7.126;2023-06-22T00:24:22;5.23;;;3.20;;
9117;SDS011;4594;50.994;7.126;2023-06-22T00:26:49;4.93;;;3.70;;
9117;SDS011;4594;50.994;7.126;2023-06-22T00:29:15;3.60;;;3.30;;
9117;SDS011;4594;50.994;7.126;2023-06-22T00:31:41;3.50;;;3.27;;
9117;SDS011;4594;50.994;7.126;2023-06-22T00:34:07;3.57;;;3.30;;
9117;SDS011;4594;50.994;7.126;2023-06-22T00:36:34;3.53;;;3.23;;
9117;SDS011;4594;50.994;7.126;2023-06-22T00:39:00;3.30;;;3.00;;
9117;SDS011;4594;50.994;7.126;2023-06-22T00:41:26;3.00;;;2.80;;
9117;SDS011;4594;50.994;7.126;2023-06-22T00:43:53;3.23;;;3.03;;
9117;SDS011;4594;50.994;7.126;2023-06-22T00:46:20;3.13;;;2.93;;
9117;SDS011;4594;50.994;7.126;2023-06-22T00:48:47;3.40;;;3.20;;
9117;SDS011;4594;50.994;7.126;2023-06-22T00:51:15;2.93;;;2.73;;
9117;SDS011;4594;50.994;7.126;2023-06-22T00:53:41;4.60;;;3.10;;
9117;SDS011;4594;50.994;7.126;2023-06-22T00:56:08;3.30;;;3.10;;
9117;SDS011;4594;50.994;7.126;2023-06-22T00:58:37;3.63;;;3.13;;
9117;SDS011;4594;50.994;7.126;2023-06-22T01:01:06;3.23;;;3.00;;
9117;SDS011;4594;50.994;7.126;2023-06-22T01:03:32;2.93;;;2.80;;
9117;SDS011;4594;50.994;7.126;2023-06-22T01:05:59;3.80;;;3.50;;
9117;SDS011;4594;50.994;7.126;2023-06-22T01:08:40;3.70;;;3.07;;
9117;SDS011;4594;50.994;7.126;2023-06-22T01:11:20;3.00;;;2.90;;
9117;SDS011;4594;50.994;7.126;2023-06-22T01:16:35;3.63;;;3.33;;
9117;SDS011;4594;50.994;7.126;2023-06-22T01:21:59;5.17;;;3.13;;
9117;SDS011;4594;50.994;7.126;2023-06-22T01:24:32;3.23;;;2.80;;
9117;SDS011;4594;50.994;7.126;2023-06-22T01:30:15;3.00;;;2.80;;
9117;SDS011;4594;50.994;7.126;2023-06-22T01:32:44;11.47;;;3.60;;
9117;SDS011;4594;50.994;7.126;2023-06-22T01:35:10;3.60;;;3.30;;
9117;SDS011;4594;50.994;7.126;2023-06-22T01:37:39;2.97;;;2.77;;
9117;SDS011;4594;50.994;7.126;2023-06-22T01:40:05;3.30;;;3.07;;
9117;SDS011;4594;50.994;7.126;2023-06-22T01:42:33;3.20;;;3.00;;
9117;SDS011;4594;50.994;7.126;2023-06-22T01:45:00;3.50;;;3.30;;
9117;SDS011;4594;50.994;7.126;2023-06-22T01:47:27;3.17;;;2.97;;
9117;SDS011;4594;50.994;7.126;2023-06-22T01:49:53;3.57;;;3.27;;
9117;SDS011;4594;50.994;7.126;2023-06-22T01:52:19;3.30;;;3.10;;
9117;SDS011;4594;50.994;7.126;2023-06-22T01:54:46;3.17;;;2.90;;
9117;SDS011;4594;50.994;7.126;2023-06-22T01:57:13;3.80;;;3.50;;
9117;SDS011;4594;50.994;7.126;2023-06-22T01:59:41;4.97;;;3.63;;
9117;SDS011;4594;50.994;7.126;2023-06-22T02:02:11;3.43;;;2.87;;
9117;SDS011;4594;50.994;7.126;2023-06-22T02:07:23;3.50;;;3.30;;
9117;SDS011;4594;50.994;7.126;2023-06-22T02:09:57;3.60;;;3.33;;
9117;SDS011;4594;50.994;7.126;2023-06-22T02:12:26;4.07;;;3.67;;
9117;SDS011;4594;50.994;7.126;2023-06-22T02:14:55;4.13;;;3.40;;
9117;SDS011;4594;50.994;7.126;2023-06-22T02:17:22;4.00;;;3.70;;
9117;SDS011;4594;50.994;7.126;2023-06-22T02:19:50;3.63;;;3.33;;
9117;SDS011;4594;50.994;7.126;2023-06-22T02:22:16;4.03;;;3.70;;
9117;SDS011;4594;50.994;7.126;2023-06-22T02:24:41;3.93;;;3.47;;
9117;SDS011;4594;50.994;7.126;2023-06-22T02:27:07;3.87;;;3.37;;
9117;SDS011;4594;50.994;7.126;2023-06-22T02:29:33;4.83;;;3.73;;
9117;SDS011;4594;50.994;7.126;2023-06-22T02:31:59;3.67;;;3.33;;
9117;SDS011;4594;50.994;7.126;2023-06-22T02:34:25;3.50;;;3.20;;
9117;SDS011;4594;50.994;7.126;2023-06-22T02:36:51;3.90;;;3.50;;
9117;SDS011;4594;50.994;7.126;2023-06-22T02:39:24;4.23;;;3.83;;
9117;SDS011;4594;50.994;7.126;2023-06-22T02:41:50;4.20;;;3.90;;
9117;SDS011;4594;50.994;7.126;2023-06-22T02:44:18;5.03;;;3.57;;
9117;SDS011;4594;50.994;7.126;2023-06-22T02:46:45;3.83;;;3.57;;
9117;SDS011;4594;50.994;7.126;2023-06-22T02:49:12;3.80;;;3.60;;
9117;SDS011;4594;50.994;7.126;2023-06-22T02:51:39;3.90;;;3.63;;
9117;SDS011;4594;50.994;7.126;2023-06-22T02:54:10;6.57;;;4.20;;
9117;SDS011;4594;50.994;7.126;2023-06-22T02:56:35;3.60;;;3.37;;
9117;SDS011;4594;50.994;7.126;2023-06-22T02:59:02;4.47;;;4.07;;
9117;SDS011;4594;50.994;7.126;2023-06-22T03:01:28;4.13;;;3.83;;
9117;SDS011;4594;50.994;7.126;2023-06-22T03:03:55;4.47;;;4.17;;
9117;SDS011;4594;50.994;7.126;2023-06-22T03:06:21;4.80;;;4.37;;
9117;SDS011;4594;50.994;7.126;2023-06-22T03:08:51;3.93;;;3.63;;
9117;SDS011;4594;50.994;7.126;2023-06-22T03:11:17;5.50;;;4.07;;
9117;SDS011;4594;50.994;7.126;2023-06-22T03:13:43;3.93;;;3.63;;
9117;SDS011;4594;50.994;7.126;2023-06-22T03:16:08;3.83;;;3.60;;
9117;SDS011;4594;50.994;7.126;2023-06-22T03:18:35;4.07;;;3.57;;
9117;SDS011;4594;50.994;7.126;2023-06-22T03:21:00;3.97;;;3.67;;
9117;SDS011;4594;50.994;7.126;2023-06-22T03:23:27;4.93;;;3.60;;
9117;SDS011;4594;50.994;7.126;2023-06-22T03:25:53;3.57;;;3.30;;
9117;SDS011;4594;50.994;7.126;2023-06-22T03:28:20;3.87;;;3.57;;
9117;SDS011;4594;50.994;7.126;2023-06-22T03:30:46;3.63;;;3.43;;
9117;SDS011;4594;50.994;7.126;2023-06-22T03:33:12;4.40;;;3.90;;
9117;SDS011;4594;50.994;7.126;2023-06-22T03:35:38;6.50;;;4.20;;
9117;SDS011;4594;50.994;7.126;2023-06-22T03:38:04;4.27;;;3.97;;
9117;SDS011;4594;50.994;7.126;2023-06-22T03:40:29;4.47;;;4.07;;
9117;SDS011;4594;50.994;7.126;2023-06-22T03:42:55;4.47;;;3.63;;
9117;SDS011;4594;50.994;7.126;2023-06-22T03:45:21;5.57;;;3.80;;
9117;SDS011;4594;50.994;7.126;2023-06-22T03:47:47;4.00;;;3.70;;
9117;SDS011;4594;50.994;7.126;2023-06-22T03:50:12;4.47;;;3.97;;
9117;SDS011;4594;50.994;7.126;2023-06-22T03:52:39;4.33;;;3.93;;
9117;SDS011;4594;50.994;7.126;2023-06-22T03:55:05;4.30;;;4.00;;
9117;SDS011;4594;50.994;7.126;2023-06-22T03:57:32;4.30;;;4.00;;
9117;SDS011;4594;50.994;7.126;2023-06-22T03:59:59;4.23;;;3.93;;
9117;SDS011;4594;50.994;7.126;2023-06-22T04:02:25;4.40;;;4.00;;
9117;SDS011;4594;50.994;7.126;2023-06-22T04:04:51;4.53;;;4.13;;
9117;SDS011;4594;50.994;7.126;2023-06-22T04:07:16;4.20;;;3.90;;
9117;SDS011;4594;50.994;7.126;2023-06-22T04:09:43;4.63;;;4.20;;
9117;SDS011;4594;50.994;7.126;2023-06-22T04:12:08;3.93;;;3.63;;
9117;SDS011;4594;50.994;7.126;2023-06-22T04:14:34;4.63;;;4.20;;
9117;SDS011;4594;50.994;7.126;2023-06-22T04:17:01;8.17;;;5.00;;
9117;SDS011;4594;50.994;7.126;2023-06-22T04:19:27;4.30;;;4.00;;
9117;SDS011;4594;50.994;7.126;2023-06-22T04:21:52;4.67;;;4.37;;
9117;SDS011;4594;50.994;7.126;2023-06-22T04:24:18;5.57;;;4.10;;
9117;SDS011;4594;50.994;7.126;2023-06-22T04:26:44;5.73;;;4.43;;
9117;SDS011;4594;50.994;7.126;2023-06-22T04:29:11;5.50;;;4.30;;
9117;SDS011;4594;50.994;7.126;2023-06-22T04:31:38;4.63;;;4.23;;
9117;SDS011;4594;50.994;7.126;2023-06-22T04:34:04;4.57;;;4.27;;
9117;SDS011;4594;50.994;7.126;2023-06-22T04:36:33;6.70;;;4.97;;
9117;SDS011;4594;50.994;7.126;2023-06-22T04:39:08;5.13;;;4.73;;
9117;SDS011;4594;50.994;7.126;2023-06-22T04:41:39;4.93;;;4.53;;
9117;SDS011;4594;50.994;7.126;2023-06-22T04:44:15;5.00;;;4.67;;
9117;SDS011;4594;50.994;7.126;2023-06-22T04:46:54;4.80;;;4.40;;
9117;SDS011;4594;50.994;7.126;2023-06-22T04:49:27;5.87;;;4.57;;
9117;SDS011;4594;50.994;7.126;2023-06-22T04:54:31;4.93;;;4.57;;
9117;SDS011;4594;50.994;7.126;2023-06-22T04:56:58;5.90;;;4.93;;
9117;SDS011;4594;50.994;7.126;2023-06-22T04:59:29;6.57;;;5.03;;
9117;SDS011;4594;50.994;7.126;2023-06-22T05:02:00;5.07;;;4.57;;
9117;SDS011;4594;50.994;7.126;2023-06-22T05:04:28;7.10;;;4.90;;
9117;SDS011;4594;50.994;7.126;2023-06-22T05:06:58;5.40;;;4.93;;
9117;SDS011;4594;50.994;7.126;2023-06-22T05:09:25;5.60;;;4.87;;
9117;SDS011;4594;50.994;7.126;2023-06-22T05:11:51;5.23;;;4.83;;
9117;SDS011;4594;50.994;7.126;2023-06-22T05:14:17;5.10;;;4.60;;
9117;SDS011;4594;50.994;7.126;2023-06-22T05:16:44;5.17;;;4.67;;
9117;SDS011;4594;50.994;7.126;2023-06-22T05:19:10;5.10;;;4.70;;
9117;SDS011;4594;50.994;7.126;2023-06-22T05:21:37;5.20;;;4.87;;
9117;SDS011;4594;50.994;7.126;2023-06-22T05:24:03;6.17;;;4.80;;
9117;SDS011;4594;50.994;7.126;2023-06-22T05:26:30;5.20;;;4.80;;
9117;SDS011;4594;50.994;7.126;2023-06-22T05:28:57;5.20;;;4.70;;
9117;SDS011;4594;50.994;7.126;2023-06-22T05:31:25;5.57;;;5.03;;
9117;SDS011;4594;50.994;7.126;2023-06-22T05:33:52;5.57;;;5.17;;
9117;SDS011;4594;50.994;7.126;2023-06-22T05:36:19;5.00;;;4.60;;
9117;SDS011;4594;50.994;7.126;2023-06-22T05:38:49;7.67;;;4.97;;
9117;SDS011;4594;50.994;7.126;2023-06-22T05:41:16;6.23;;;4.90;;
9117;SDS011;4594;50.994;7.126;2023-06-22T05:43:42;5.90;;;5.40;;
9117;SDS011;4594;50.994;7.126;2023-06-22T05:46:08;5.07;;;4.67;;
9117;SDS011;4594;50.994;7.126;2023-06-22T05:48:33;5.53;;;4.97;;
9117;SDS011;4594;50.994;7.126;2023-06-22T05:50:59;5.60;;;5.10;;
9117;SDS011;4594;50.994;7.126;2023-06-22T05:53:25;6.17;;;5.67;;
9117;SDS011;4594;50.994;7.126;2023-06-22T05:55:51;5.97;;;5.47;;
9117;SDS011;4594;50.994;7.126;2023-06-22T05:58:16;5.53;;;5.13;;
9117;SDS011;4594;50.994;7.126;2023-06-22T06:00:42;5.57;;;5.07;;
9117;SDS011;4594;50.994;7.126;2023-06-22T06:03:08;5.50;;;5.00;;
9117;SDS011;4594;50.994;7.126;2023-06-22T06:05:35;5.03;;;4.63;;
9117;SDS011;4594;50.994;7.126;2023-06-22T06:08:03;5.77;;;5.27;;
9117;SDS011;4594;50.994;7.126;2023-06-22T06:10:31;6.30;;;4.80;;
9117;SDS011;4594;50.994;7.126;2023-06-22T06:12:58;4.80;;;4.37;;
9117;SDS011;4594;50.994;7.126;2023-06-22T06:15:26;7.23;;;4.73;;
9117;SDS011;4594;50.994;7.126;2023-06-22T06:17:52;4.60;;;4.20;;
9117;SDS011;4594;50.994;7.126;2023-06-22T06:20:19;4.47;;;4.17;;
9117;SDS011;4594;50.994;7.126;2023-06-22T06:22:48;4.30;;;4.00;;
9117;SDS011;4594;50.994;7.126;2023-06-22T06:25:14;4.30;;;3.87;;
9117;SDS011;4594;50.994;7.126;2023-06-22T06:27:43;4.90;;;4.50;;
9117;SDS011;4594;50.994;7.126;2023-06-22T06:30:10;4.50;;;4.10;;
9117;SDS011;4594;50.994;7.126;2023-06-22T06:32:38;4.20;;;3.90;;
9117;SDS011;4594;50.994;7.126;2023-06-22T06:35:08;4.57;;;4.17;;
9117;SDS011;4594;50.994;7.126;2023-06-22T06:37:36;4.23;;;3.93;;
9117;SDS011;4594;50.994;7.126;2023-06-22T06:40:04;4.93;;;4.10;;
9117;SDS011;4594;50.994;7.126;2023-06-22T06:42:35;4.07;;;3.80;;
9117;SDS011;4594;50.994;7.126;2023-06-22T06:45:15;4.33;;;4.00;;
9117;SDS011;4594;50.994;7.126;2023-06-22T06:47:45;3.87;;;3.60;;
9117;SDS011;4594;50.994;7.126;2023-06-22T06:50:11;4.00;;;3.60;;
9117;SDS011;4594;50.994;7.126;2023-06-22T06:52:38;4.07;;;3.50;;
9117;SDS011;4594;50.994;7.126;2023-06-22T06:55:03;5.73;;;3.90;;
9117;SDS011;4594;50.994;7.126;2023-06-22T06:57:33;4.27;;;3.87;;
9117;SDS011;4594;50.994;7.126;2023-06-22T06:59:59;4.00;;;3.70;;
9117;SDS011;4594;50.994;7.126;2023-06-22T07:02:25;4.73;;;3.70;;
9117;SDS011;4594;50.994;7.126;2023-06-22T07:04:54;4.53;;;3.83;;
9117;SDS011;4594;50.994;7.126;2023-06-22T07:07:20;3.80;;;3.50;;
9117;SDS011;4594;50.994;7.126;2023-06-22T07:09:46;4.70;;;3.60;;
9117;SDS011;4594;50.994;7.126;2023-06-22T07:12:12;4.67;;;3.70;;
9117;SDS011;4594;50.994;7.126;2023-06-22T07:14:38;4.30;;;3.90;;
9117;SDS011;4594;50.994;7.126;2023-06-22T07:17:03;3.70;;;3.50;;
9117;SDS011;4594;50.994;7.126;2023-06-22T07:19:29;5.13;;;3.57;;
9117;SDS011;4594;50.994;7.126;2023-06-22T07:21:56;4.00;;;3.70;;
9117;SDS011;4594;50.994;7.126;2023-06-22T07:24:22;3.93;;;3.63;;
9117;SDS011;4594;50.994;7.126;2023-06-22T07:26:49;3.90;;;3.60;;
9117;SDS011;4594;50.994;7.126;2023-06-22T07:29:17;4.47;;;4.00;;
9117;SDS011;4594;50.994;7.126;2023-06-22T07:31:43;6.40;;;3.77;;
9117;SDS011;4594;50.994;7.126;2023-06-22T07:34:09;4.67;;;3.50;;
9117;SDS011;4594;50.994;7.126;2023-06-22T07:36:35;3.93;;;3.50;;
9117;SDS011;4594;50.994;7.126;2023-06-22T07:39:02;5.53;;;3.30;;
9117;SDS011;4594;50.994;7.126;2023-06-22T07:41:28;3.87;;;3.57;;
9117;SDS011;4594;50.994;7.126;2023-06-22T07:43:55;3.40;;;3.10;;
9117;SDS011;4594;50.994;7.126;2023-06-22T07:46:20;3.77;;;3.33;;
9117;SDS011;4594;50.994;7.126;2023-06-22T07:48:47;3.23;;;3.13;;
9117;SDS011;4594;50.994;7.126;2023-06-22T07:51:12;2.70;;;2.60;;
9117;SDS011;4594;50.994;7.126;2023-06-22T07:53:39;3.17;;;2.97;;
9117;SDS011;4594;50.994;7.126;2023-06-22T07:56:12;3.67;;;3.30;;
9117;SDS011;4594;50.994;7.126;2023-06-22T07:58:43;3.93;;;3.53;;
9117;SDS011;4594;50.994;7.126;2023-06-22T08:01:11;3.37;;;3.17;;
9117;SDS011;4594;50.994;7.126;2023-06-22T08:03:37;3.23;;;3.10;;
9117;SDS011;4594;50.994;7.126;2023-06-22T08:06:04;3.50;;;3.30;;
9117;SDS011;4594;50.994;7.126;2023-06-22T08:08:31;3.50;;;3.30;;
9117;SDS011;4594;50.994;7.126;2023-06-22T08:10:56;3.40;;;3.20;;
9117;SDS011;4594;50.994;7.126;2023-06-22T08:13:22;3.47;;;3.13;;
9117;SDS011;4594;50.994;7.126;2023-06-22T08:15:48;3.60;;;3.40;;
9117;SDS011;4594;50.994;7.126;2023-06-22T08:18:14;3.30;;;3.10;;
9117;SDS011;4594;50.994;7.126;2023-06-22T08:20:41;3.40;;;3.20;;
9117;SDS011;4594;50.994;7.126;2023-06-22T08:23:07;3.47;;;3.20;;
9117;SDS011;4594;50.994;7.126;2023-06-22T08:25:33;4.67;;;3.50;;
9117;SDS011;4594;50.994;7.126;2023-06-22T08:28:00;3.47;;;2.70;;
9117;SDS011;4594;50.994;7.126;2023-06-22T08:30:27;3.23;;;3.03;;
9117;SDS011;4594;50.994;7.126;2023-06-22T08:32:53;3.10;;;2.90;;
9117;SDS011;4594;50.994;7.126;2023-06-22T08:35:20;5.47;;;3.10;;
9117;SDS011;4594;50.994;7.126;2023-06-22T08:37:47;3.23;;;2.93;;
9117;SDS011;4594;50.994;7.126;2023-06-22T08:40:17;2.93;;;2.83;;
9117;SDS011;4594;50.994;7.126;2023-06-22T08:42:45;3.10;;;2.87;;
9117;SDS011;4594;50.994;7.126;2023-06-22T08:45:12;3.10;;;2.90;;
9117;SDS011;4594;50.994;7.126;2023-06-22T08:47:38;4.07;;;3.30;;
9117;SDS011;4594;50.994;7.126;2023-06-22T08:50:09;3.47;;;3.17;;
9117;SDS011;4594;50.994;7.126;2023-06-22T08:52:36;3.67;;;3.00;;
9117;SDS011;4594;50.994;7.126;2023-06-22T08:55:03;6.03;;;2.90;;
9117;SDS011;4594;50.994;7.126;2023-06-22T08:57:31;2.78;;;2.67;;
9117;SDS011;4594;50.994;7.126;2023-06-22T08:59:57;3.28;;;3.08;;
9117;SDS011;4594;50.994;7.126;2023-06-22T09:02:24;3.30;;;3.10;;
9117;SDS011;4594;50.994;7.126;2023-06-22T09:04:58;3.43;;;3.23;;
9117;SDS011;4594;50.994;7.126;2023-06-22T09:07:24;3.50;;;3.30;;
9117;SDS011;4594;50.994;7.126;2023-06-22T09:09:51;7.87;;;3.20;;
9117;SDS011;4594;50.994;7.126;2023-06-22T09:12:17;3.50;;;2.90;;
9117;SDS011;4594;50.994;7.126;2023-06-22T09:14:45;3.50;;;3.20;;
9117;SDS011;4594;50.994;7.126;2023-06-22T09:17:12;3.30;;;3.03;;
9117;SDS011;4594;50.994;7.126;2023-06-22T09:19:38;3.53;;;3.30;;
9117;SDS011;4594;50.994;7.126;2023-06-22T09:22:04;3.40;;;3.20;;
9117;SDS011;4594;50.994;7.126;2023-06-22T09:24:31;3.20;;;3.00;;
9117;SDS011;4594;50.994;7.126;2023-06-22T09:26:57;4.27;;;3.67;;
9117;SDS011;4594;50.994;7.126;2023-06-22T09:29:23;3.70;;;3.40;;
9117;SDS011;4594;50.994;7.126;2023-06-22T09:31:49;3.70;;;3.40;;
9117;SDS011;4594;50.994;7.126;2023-06-22T09:34:15;4.63;;;3.27;;
9117;SDS011;4594;50.994;7.126;2023-06-22T09:36:45;3.30;;;3.10;;
9117;SDS011;4594;50.994;7.126;2023-06-22T09:39:14;4.13;;;3.73;;
9117;SDS011;4594;50.994;7.126;2023-06-22T09:41:39;3.70;;;3.40;;
9117;SDS011;4594;50.994;7.126;2023-06-22T09:44:05;3.50;;;3.23;;
9117;SDS011;4594;50.994;7.126;2023-06-22T09:46:31;3.60;;;3.30;;
9117;SDS011;4594;50.994;7.126;2023-06-22T09:48:57;3.50;;;3.20;;
9117;SDS011;4594;50.994;7.126;2023-06-22T09:51:23;3.53;;;3.23;;
9117;SDS011;4594;50.994;7.126;2023-06-22T09:53:49;3.20;;;3.00;;
9117;SDS011;4594;50.994;7.126;2023-06-22T09:56:15;3.30;;;3.10;;
9117;SDS011;4594;50.994;7.126;2023-06-22T09:58:42;4.57;;;3.87;;
9117;SDS011;4594;50.994;7.126;2023-06-22T10:01:08;3.87;;;3.47;;
9117;SDS011;4594;50.994;7.126;2023-06-22T10:03:35;3.33;;;3.13;;
9117;SDS011;4594;50.994;7.126;2023-06-22T10:06:01;3.50;;;3.30;;
9117;SDS011;4594;50.994;7.126;2023-06-22T10:08:28;5.60;;;3.80;;
9117;SDS011;4594;50.994;7.126;2023-06-22T10:10:54;3.77;;;3.47;;
9117;SDS011;4594;50.994;7.126;2023-06-22T10:13:20;3.50;;;3.30;;
9117;SDS011;4594;50.994;7.126;2023-06-22T10:15:45;3.90;;;3.60;;
9117;SDS011;4594;50.994;7.126;2023-06-22T10:18:15;3.93;;;3.63;;
9117;SDS011;4594;50.994;7.126;2023-06-22T10:20:41;3.43;;;3.27;;
9117;SDS011;4594;50.994;7.126;2023-06-22T10:23:07;4.13;;;3.83;;
9117;SDS011;4594;50.994;7.126;2023-06-22T10:25:33;4.40;;;4.10;;
9117;SDS011;4594;50.994;7.126;2023-06-22T10:27:58;4.15;;;3.80;;
9117;SDS011;4594;50.994;7.126;2023-06-22T10:30:24;4.47;;;4.17;;
9117;SDS011;4594;50.994;7.126;2023-06-22T10:32:50;4.77;;;4.27;;
9117;SDS011;4594;50.994;7.126;2023-06-22T10:35:16;5.53;;;3.90;;
9117;SDS011;4594;50.994;7.126;2023-06-22T10:37:45;4.77;;;4.07;;
9117;SDS011;4594;50.994;7.126;2023-06-22T10:40:15;4.10;;;3.80;;
9117;SDS011;4594;50.994;7.126;2023-06-22T10:42:43;4.80;;;4.40;;
9117;SDS011;4594;50.994;7.126;2023-06-22T10:45:10;4.40;;;4.00;;
9117;SDS011;4594;50.994;7.126;2023-06-22T10:47:36;5.50;;;4.93;;
9117;SDS011;4594;50.994;7.126;2023-06-22T10:50:02;6.07;;;5.47;;
9117;SDS011;4594;50.994;7.126;2023-06-22T10:52:29;6.83;;;5.33;;
9117;SDS011;4594;50.994;7.126;2023-06-22T10:54:55;6.40;;;5.30;;
9117;SDS011;4594;50.994;7.126;2023-06-22T10:57:21;7.50;;;5.37;;
9117;SDS011;4594;50.994;7.126;2023-06-22T10:59:47;12.37;;;5.03;;
9117;SDS011;4594;50.994;7.126;2023-06-22T11:02:13;9.07;;;5.70;;
9117;SDS011;4594;50.994;7.126;2023-06-22T11:04:39;11.57;;;5.10;;
9117;SDS011;4594;50.994;7.126;2023-06-22T11:07:04;4.93;;;4.53;;
9117;SDS011;4594;50.994;7.126;2023-06-22T11:09:30;6.97;;;4.77;;
9117;SDS011;4594;50.994;7.126;2023-06-22T11:11:56;8.30;;;5.17;;
9117;SDS011;4594;50.994;7.126;2023-06-22T11:14:23;12.27;;;5.67;;
9117;SDS011;4594;50.994;7.126;2023-06-22T11:16:49;6.70;;;5.00;;
9117;SDS011;4594;50.994;7.126;2023-06-22T11:19:15;7.57;;;5.53;;
9117;SDS011;4594;50.994;7.126;2023-06-22T11:21:41;6.73;;;5.30;;
9117;SDS011;4594;50.994;7.126;2023-06-22T11:24:07;7.30;;;5.60;;
9117;SDS011;4594;50.994;7.126;2023-06-22T11:26:33;9.50;;;5.63;;
9117;SDS011;4594;50.994;7.126;2023-06-22T11:28:59;10.83;;;5.97;;
9117;SDS011;4594;50.994;7.126;2023-06-22T11:31:25;7.73;;;5.90;;
9117;SDS011;4594;50.994;7.126;2023-06-22T11:33:51;8.40;;;5.33;;
9117;SDS011;4594;50.994;7.126;2023-06-22T11:36:17;8.43;;;5.63;;
9117;SDS011;4594;50.994;7.126;2023-06-22T11:38:47;11.77;;;5.90;;
9117;SDS011;4594;50.994;7.126;2023-06-22T11:41:13;8.30;;;6.20;;
9117;SDS011;4594;50.994;7.126;2023-06-22T11:43:39;6.17;;;5.57;;
9117;SDS011;4594;50.994;7.126;2023-06-22T11:46:05;7.47;;;6.27;;
9117;SDS011;4594;50.994;7.126;2023-06-22T11:48:31;7.00;;;5.77;;
9117;SDS011;4594;50.994;7.126;2023-06-22T11:50:57;8.27;;;6.30;;
9117;SDS011;4594;50.994;7.126;2023-06-22T11:53:24;7.87;;;6.10;;
9117;SDS011;4594;50.994;7.126;2023-06-22T11:55:51;6.73;;;6.13;;
9117;SDS011;4594;50.994;7.126;2023-06-22T11:58:19;7.27;;;6.10;;
9117;SDS011;4594;50.994;7.126;2023-06-22T12:00:44;8.10;;;6.63;;
9117;SDS011;4594;50.994;7.126;2023-06-22T12:03:10;8.40;;;6.33;;
9117;SDS011;4594;50.994;7.126;2023-06-22T12:05:37;7.90;;;6.03;;
9117;SDS011;4594;50.994;7.126;2023-06-22T12:08:03;8.27;;;7.47;;
9117;SDS011;4594;50.994;7.126;2023-06-22T12:10:30;8.03;;;7.23;;
9117;SDS011;4594;50.994;7.126;2023-06-22T12:12:55;9.67;;;7.37;;
9117;SDS011;4594;50.994;7.126;2023-06-22T12:15:25;8.43;;;6.93;;
9117;SDS011;4594;50.994;7.126;2023-06-22T12:17:51;7.93;;;6.50;;
9117;SDS011;4594;50.994;7.126;2023-06-22T12:20:17;7.70;;;6.90;;
9117;SDS011;4594;50.994;7.126;2023-06-22T12:22:43;8.37;;;6.73;;
9117;SDS011;4594;50.994;7.126;2023-06-22T12:25:10;7.33;;;6.73;;
9117;SDS011;4594;50.994;7.126;2023-06-22T12:27:36;10.47;;;6.70;;
9117;SDS011;4594;50.994;7.126;2023-06-22T12:30:03;8.43;;;6.87;;
9117;SDS011;4594;50.994;7.126;2023-06-22T12:32:29;9.67;;;7.23;;
9117;SDS011;4594;50.994;7.126;2023-06-22T12:34:55;7.80;;;6.93;;
9117;SDS011;4594;50.994;7.126;2023-06-22T12:37:22;7.60;;;6.90;;
9117;SDS011;4594;50.994;7.126;2023-06-22T12:39:48;7.47;;;6.70;;
9117;SDS011;4594;50.994;7.126;2023-06-22T12:42:15;9.27;;;7.43;;
9117;SDS011;4594;50.994;7.126;2023-06-22T12:44:41;8.57;;;7.27;;
9117;SDS011;4594;50.994;7.126;2023-06-22T12:47:08;10.00;;;6.90;;
9117;SDS011;4594;50.994;7.126;2023-06-22T12:49:34;11.10;;;7.73;;
9117;SDS011;4594;50.994;7.126;2023-06-22T12:52:01;8.20;;;6.23;;
9117;SDS011;4594;50.994;7.126;2023-06-22T12:54:27;7.73;;;6.93;;
9117;SDS011;4594;50.994;7.126;2023-06-22T12:56:54;10.07;;;7.27;;
9117;SDS011;4594;50.994;7.126;2023-06-22T12:59:20;7.27;;;6.50;;
9117;SDS011;4594;50.994;7.126;2023-06-22T13:01:46;10.07;;;6.50;;
9117;SDS011;4594;50.994;7.126;2023-06-22T13:04:12;9.37;;;7.00;;
9117;SDS011;4594;50.994;7.126;2023-06-22T13:06:41;7.33;;;6.63;;
9117;SDS011;4594;50.994;7.126;2023-06-22T13:09:07;8.07;;;6.10;;
9117;SDS011;4594;50.994;7.126;2023-06-22T13:11:35;7.07;;;6.37;;
9117;SDS011;4594;50.994;7.126;2023-06-22T13:14:00;6.87;;;6.20;;
9117;SDS011;4594;50.994;7.126;2023-06-22T13:16:26;6.30;;;5.70;;
9117;SDS011;4594;50.994;7.126;2023-06-22T13:18:52;5.27;;;4.90;;
9117;SDS011;4594;50.994;7.126;2023-06-22T13:21:17;6.03;;;5.13;;
9117;SDS011;4594;50.994;7.126;2023-06-22T13:23:44;5.63;;;5.13;;
9117;SDS011;4594;50.994;7.126;2023-06-22T13:26:10;5.27;;;4.77;;
9117;SDS011;4594;50.994;7.126;2023-06-22T13:28:35;5.00;;;4.57;;
9117;SDS011;4594;50.994;7.126;2023-06-22T13:31:01;4.83;;;4.43;;
9117;SDS011;4594;50.994;7.126;2023-06-22T13:33:26;4.57;;;4.27;;
9117;SDS011;4594;50.994;7.126;2023-06-22T13:35:52;4.33;;;4.03;;
9117;SDS011;4594;50.994;7.126;2023-06-22T13:38:18;4.00;;;3.70;;
9117;SDS011;4594;50.994;7.126;2023-06-22T13:40:44;4.33;;;3.93;;
9117;SDS011;4594;50.994;7.126;2023-06-22T13:43:10;3.90;;;3.70;;
9117;SDS011;4594;50.994;7.126;2023-06-22T13:45:35;2.93;;;2.83;;
9117;SDS011;4594;50.994;7.126;2023-06-22T13:48:01;3.20;;;3.10;;
9117;SDS011;4594;50.994;7.126;2023-06-22T13:50:27;3.50;;;3.30;;
9117;SDS011;4594;50.994;7.126;2023-06-22T13:52:54;3.40;;;3.10;;
9117;SDS011;4594;50.994;7.126;2023-06-22T13:55:19;3.50;;;3.30;;
9117;SDS011;4594;50.994;7.126;2023-06-22T13:57:46;3.27;;;3.07;;
9117;SDS011;4594;50.994;7.126;2023-06-22T14:00:12;3.97;;;3.67;;
9117;SDS011;4594;50.994;7.126;2023-06-22T14:02:38;4.40;;;4.00;;
9117;SDS011;4594;50.994;7.126;2023-06-22T14:05:07;6.83;;;4.40;;
9117;SDS011;4594;50.994;7.126;2023-06-22T14:07:33;4.40;;;4.00;;
9117;SDS011;4594;50.994;7.126;2023-06-22T14:09:59;4.70;;;4.40;;
9117;SDS011;4594;50.994;7.126;2023-06-22T14:12:25;4.33;;;4.03;;
9117;SDS011;4594;50.994;7.126;2023-06-22T14:14:51;4.60;;;4.30;;
9117;SDS011;4594;50.994;7.126;2023-06-22T14:17:17;4.40;;;4.00;;
9117;SDS011;4594;50.994;7.126;2023-06-22T14:19:48;4.50;;;4.10;;
9117;SDS011;4594;50.994;7.126;2023-06-22T14:22:15;4.43;;;4.13;;
9117;SDS011;4594;50.994;7.126;2023-06-22T14:24:41;4.70;;;4.30;;
9117;SDS011;4594;50.994;7.126;2023-06-22T14:27:06;4.93;;;4.53;;
9117;SDS011;4594;50.994;7.126;2023-06-22T14:29:33;4.53;;;4.13;;
9117;SDS011;4594;50.994;7.126;2023-06-22T14:32:00;4.50;;;4.20;;
9117;SDS011;4594;50.994;7.126;2023-06-22T14:34:25;3.63;;;3.43;;
9117;SDS011;4594;50.994;7.126;2023-06-22T14:36:51;4.13;;;3.83;;
9117;SDS011;4594;50.994;7.126;2023-06-22T14:39:17;3.93;;;3.60;;
9117;SDS011;4594;50.994;7.126;2023-06-22T14:41:42;4.07;;;3.77;;
9117;SDS011;4594;50.994;7.126;2023-06-22T14:44:08;3.90;;;3.70;;
9117;SDS011;4594;50.994;7.126;2023-06-22T14:46:34;4.40;;;3.90;;
9117;SDS011;4594;50.994;7.126;2023-06-22T14:49:00;3.70;;;3.50;;
9117;SDS011;4594;50.994;7.126;2023-06-22T14:51:26;3.70;;;3.50;;
9117;SDS011;4594;50.994;7.126;2023-06-22T14:53:52;4.70;;;3.83;;
9117;SDS011;4594;50.994;7.126;2023-06-22T14:56:17;3.90;;;3.70;;
9117;SDS011;4594;50.994;7.126;2023-06-22T14:58:43;4.27;;;3.93;;
9117;SDS011;4594;50.994;7.126;2023-06-22T15:01:13;6.50;;;4.23;;
9117;SDS011;4594;50.994;7.126;2023-06-22T15:03:40;11.60;;;4.70;;
9117;SDS011;4594;50.994;7.126;2023-06-22T15:06:06;4.60;;;4.20;;
9117;SDS011;4594;50.994;7.126;2023-06-22T15:08:33;8.47;;;4.60;;
9117;SDS011;4594;50.994;7.126;2023-06-22T15:10:59;4.83;;;4.30;;
9117;SDS011;4594;50.994;7.126;2023-06-22T15:13:28;5.33;;;4.93;;
9117;SDS011;4594;50.994;7.126;2023-06-22T15:15:58;7.23;;;5.43;;
9117;SDS011;4594;50.994;7.126;2023-06-22T15:18:25;7.40;;;5.63;;
9117;SDS011;4594;50.994;7.126;2023-06-22T15:20:51;10.93;;;5.97;;
9117;SDS011;4594;50.994;7.126;2023-06-22T15:23:18;7.90;;;6.07;;
9117;SDS011;4594;50.994;7.126;2023-06-22T15:25:44;5.97;;;5.47;;
9117;SDS011;4594;50.994;7.126;2023-06-22T15:28:10;18.47;;;6.50;;